Aviation Digital Data Service (ADDS)

Output produced by METARs form (2345 UTC 18 September 2014)
found at http://aviationweather.gov/adds/metars/
 
KMPV 182324Z 1900/1924 33005KT P6SM SKC 
     FM190100 VRB03KT P6SM SKC 
     FM190700 00000KT 1/4SM FZFG VV001 
     FM191400 VRB03KT P6SM SKC 
     FM191700 17008KT P6SM SKC